sensor_id;sensor_type;location;lat;lon;timestamp;P1;durP1;ratioP1;P2;durP2;ratioP2
9374;SDS011;4727;51.202;6.344;2023-06-22T00:00:54;4.35;;;3.75;;
9374;SDS011;4727;51.202;6.344;2023-06-22T00:03:20;4.20;;;3.90;;
9374;SDS011;4727;51.202;6.344;2023-06-22T00:05:47;4.67;;;4.27;;
9374;SDS011;4727;51.202;6.344;2023-06-22T00:08:13;8.80;;;4.57;;
9374;SDS011;4727;51.202;6.344;2023-06-22T00:10:39;5.47;;;4.97;;
9374;SDS011;4727;51.202;6.344;2023-06-22T00:13:06;4.70;;;4.30;;
9374;SDS011;4727;51.202;6.344;2023-06-22T00:15:33;5.37;;;4.87;;
9374;SDS011;4727;51.202;6.344;2023-06-22T00:17:58;6.13;;;5.03;;
9374;SDS011;4727;51.202;6.344;2023-06-22T00:20:25;6.10;;;5.50;;
9374;SDS011;4727;51.202;6.344;2023-06-22T00:22:54;8.73;;;5.77;;
9374;SDS011;4727;51.202;6.344;2023-06-22T00:25:20;7.93;;;5.70;;
9374;SDS011;4727;51.202;6.344;2023-06-22T00:27:46;7.63;;;5.77;;
9374;SDS011;4727;51.202;6.344;2023-06-22T00:30:12;9.43;;;5.67;;
9374;SDS011;4727;51.202;6.344;2023-06-22T00:32:38;5.53;;;5.00;;
9374;SDS011;4727;51.202;6.344;2023-06-22T00:35:03;6.97;;;5.80;;
9374;SDS011;4727;51.202;6.344;2023-06-22T00:37:30;6.20;;;5.70;;
9374;SDS011;4727;51.202;6.344;2023-06-22T00:39:55;6.17;;;5.57;;
9374;SDS011;4727;51.202;6.344;2023-06-22T00:42:21;6.53;;;5.20;;
9374;SDS011;4727;51.202;6.344;2023-06-22T00:44:47;6.33;;;5.53;;
9374;SDS011;4727;51.202;6.344;2023-06-22T00:47:13;6.60;;;6.00;;
9374;SDS011;4727;51.202;6.344;2023-06-22T00:49:42;7.57;;;6.77;;
9374;SDS011;4727;51.202;6.344;2023-06-22T00:52:08;6.67;;;5.37;;
9374;SDS011;4727;51.202;6.344;2023-06-22T00:54:40;6.97;;;6.27;;
9374;SDS011;4727;51.202;6.344;2023-06-22T00:57:13;8.77;;;5.47;;
9374;SDS011;4727;51.202;6.344;2023-06-22T00:59:42;9.67;;;6.73;;
9374;SDS011;4727;51.202;6.344;2023-06-22T01:02:12;6.80;;;6.10;;
9374;SDS011;4727;51.202;6.344;2023-06-22T01:04:38;5.97;;;5.33;;
9374;SDS011;4727;51.202;6.344;2023-06-22T01:13:25;8.60;;;6.40;;
9374;SDS011;4727;51.202;6.344;2023-06-22T01:15:55;7.40;;;6.70;;
9374;SDS011;4727;51.202;6.344;2023-06-22T01:18:22;8.90;;;6.90;;
9374;SDS011;4727;51.202;6.344;2023-06-22T01:20:52;10.17;;;7.30;;
9374;SDS011;4727;51.202;6.344;2023-06-22T01:25:57;9.50;;;7.37;;
9374;SDS011;4727;51.202;6.344;2023-06-22T01:28:42;8.47;;;6.77;;
9374;SDS011;4727;51.202;6.344;2023-06-22T01:31:19;8.97;;;6.40;;
9374;SDS011;4727;51.202;6.344;2023-06-22T01:33:48;8.13;;;7.30;;
9374;SDS011;4727;51.202;6.344;2023-06-22T01:36:23;8.70;;;6.97;;
9374;SDS011;4727;51.202;6.344;2023-06-22T01:38:50;10.10;;;6.93;;
9374;SDS011;4727;51.202;6.344;2023-06-22T01:41:18;10.20;;;7.03;;
9374;SDS011;4727;51.202;6.344;2023-06-22T01:43:45;8.53;;;6.87;;
9374;SDS011;4727;51.202;6.344;2023-06-22T01:46:12;9.33;;;7.97;;
9374;SDS011;4727;51.202;6.344;2023-06-22T01:48:38;8.30;;;7.00;;
9374;SDS011;4727;51.202;6.344;2023-06-22T01:51:04;9.87;;;7.57;;
9374;SDS011;4727;51.202;6.344;2023-06-22T01:53:30;7.97;;;7.07;;
9374;SDS011;4727;51.202;6.344;2023-06-22T01:55:56;8.23;;;7.43;;
9374;SDS011;4727;51.202;6.344;2023-06-22T01:58:23;7.43;;;6.63;;
9374;SDS011;4727;51.202;6.344;2023-06-22T02:00:53;8.67;;;6.83;;
9374;SDS011;4727;51.202;6.344;2023-06-22T02:03:32;7.83;;;7.00;;
9374;SDS011;4727;51.202;6.344;2023-06-22T02:06:03;7.87;;;7.17;;
9374;SDS011;4727;51.202;6.344;2023-06-22T02:08:33;14.40;;;7.27;;
9374;SDS011;4727;51.202;6.344;2023-06-22T02:11:05;7.87;;;7.00;;
9374;SDS011;4727;51.202;6.344;2023-06-22T02:13:32;8.37;;;7.53;;
9374;SDS011;4727;51.202;6.344;2023-06-22T02:15:59;13.07;;;8.10;;
9374;SDS011;4727;51.202;6.344;2023-06-22T02:18:25;9.57;;;7.97;;
9374;SDS011;4727;51.202;6.344;2023-06-22T02:20:50;8.70;;;7.57;;
9374;SDS011;4727;51.202;6.344;2023-06-22T02:23:17;9.00;;;7.90;;
9374;SDS011;4727;51.202;6.344;2023-06-22T02:25:43;10.73;;;7.63;;
9374;SDS011;4727;51.202;6.344;2023-06-22T02:28:09;12.73;;;7.80;;
9374;SDS011;4727;51.202;6.344;2023-06-22T02:30:35;8.67;;;7.57;;
9374;SDS011;4727;51.202;6.344;2023-06-22T02:33:01;8.80;;;8.00;;
9374;SDS011;4727;51.202;6.344;2023-06-22T02:35:29;11.47;;;7.60;;
9374;SDS011;4727;51.202;6.344;2023-06-22T02:38:00;8.20;;;7.40;;
9374;SDS011;4727;51.202;6.344;2023-06-22T02:40:30;8.40;;;7.53;;
9374;SDS011;4727;51.202;6.344;2023-06-22T02:42:57;10.10;;;8.40;;
9374;SDS011;4727;51.202;6.344;2023-06-22T02:45:26;9.67;;;7.93;;
9374;SDS011;4727;51.202;6.344;2023-06-22T02:47:52;9.60;;;7.40;;
9374;SDS011;4727;51.202;6.344;2023-06-22T02:50:17;8.80;;;8.00;;
9374;SDS011;4727;51.202;6.344;2023-06-22T02:52:43;9.17;;;7.43;;
9374;SDS011;4727;51.202;6.344;2023-06-22T02:55:09;12.17;;;7.30;;
9374;SDS011;4727;51.202;6.344;2023-06-22T02:57:34;8.03;;;7.23;;
9374;SDS011;4727;51.202;6.344;2023-06-22T03:00:02;9.50;;;7.23;;
9374;SDS011;4727;51.202;6.344;2023-06-22T03:02:29;8.80;;;7.67;;
9374;SDS011;4727;51.202;6.344;2023-06-22T03:04:55;11.63;;;7.40;;
9374;SDS011;4727;51.202;6.344;2023-06-22T03:07:20;8.37;;;7.47;;
9374;SDS011;4727;51.202;6.344;2023-06-22T03:09:46;9.93;;;7.17;;
9374;SDS011;4727;51.202;6.344;2023-06-22T03:12:12;12.77;;;8.30;;
9374;SDS011;4727;51.202;6.344;2023-06-22T03:14:37;10.07;;;8.47;;
9374;SDS011;4727;51.202;6.344;2023-06-22T03:17:04;9.30;;;8.37;;
9374;SDS011;4727;51.202;6.344;2023-06-22T03:19:30;9.20;;;7.80;;
9374;SDS011;4727;51.202;6.344;2023-06-22T03:21:57;9.27;;;8.37;;
9374;SDS011;4727;51.202;6.344;2023-06-22T03:24:24;11.87;;;8.30;;
9374;SDS011;4727;51.202;6.344;2023-06-22T03:26:49;11.27;;;8.07;;
9374;SDS011;4727;51.202;6.344;2023-06-22T03:29:15;14.93;;;8.80;;
9374;SDS011;4727;51.202;6.344;2023-06-22T03:31:41;9.70;;;8.17;;
9374;SDS011;4727;51.202;6.344;2023-06-22T03:34:06;10.63;;;9.10;;
9374;SDS011;4727;51.202;6.344;2023-06-22T03:36:32;12.47;;;8.30;;
9374;SDS011;4727;51.202;6.344;2023-06-22T03:38:57;10.07;;;8.63;;
9374;SDS011;4727;51.202;6.344;2023-06-22T03:41:23;10.83;;;8.97;;
9374;SDS011;4727;51.202;6.344;2023-06-22T03:43:49;13.43;;;8.93;;
9374;SDS011;4727;51.202;6.344;2023-06-22T03:46:14;12.07;;;8.97;;
9374;SDS011;4727;51.202;6.344;2023-06-22T03:48:40;11.43;;;9.00;;
9374;SDS011;4727;51.202;6.344;2023-06-22T03:51:06;11.17;;;8.57;;
9374;SDS011;4727;51.202;6.344;2023-06-22T03:53:31;14.77;;;8.50;;
9374;SDS011;4727;51.202;6.344;2023-06-22T03:55:57;15.83;;;9.53;;
9374;SDS011;4727;51.202;6.344;2023-06-22T03:58:22;9.87;;;8.80;;
9374;SDS011;4727;51.202;6.344;2023-06-22T04:00:52;12.10;;;8.83;;
9374;SDS011;4727;51.202;6.344;2023-06-22T04:03:18;12.00;;;9.07;;
9374;SDS011;4727;51.202;6.344;2023-06-22T04:05:44;10.60;;;8.37;;
9374;SDS011;4727;51.202;6.344;2023-06-22T04:08:10;11.77;;;8.73;;
9374;SDS011;4727;51.202;6.344;2023-06-22T04:10:36;11.87;;;8.73;;
9374;SDS011;4727;51.202;6.344;2023-06-22T04:13:02;14.97;;;9.60;;
9374;SDS011;4727;51.202;6.344;2023-06-22T04:15:28;10.47;;;9.37;;
9374;SDS011;4727;51.202;6.344;2023-06-22T04:17:54;10.00;;;8.57;;
9374;SDS011;4727;51.202;6.344;2023-06-22T04:20:20;9.73;;;8.50;;
9374;SDS011;4727;51.202;6.344;2023-06-22T04:22:46;10.80;;;8.63;;
9374;SDS011;4727;51.202;6.344;2023-06-22T04:25:11;9.90;;;8.43;;
9374;SDS011;4727;51.202;6.344;2023-06-22T04:27:37;10.50;;;7.73;;
9374;SDS011;4727;51.202;6.344;2023-06-22T04:30:05;12.10;;;8.87;;
9374;SDS011;4727;51.202;6.344;2023-06-22T04:32:32;11.07;;;9.60;;
9374;SDS011;4727;51.202;6.344;2023-06-22T04:35:04;12.00;;;9.23;;
9374;SDS011;4727;51.202;6.344;2023-06-22T04:37:31;13.33;;;9.63;;
9374;SDS011;4727;51.202;6.344;2023-06-22T04:39:57;13.97;;;8.83;;
9374;SDS011;4727;51.202;6.344;2023-06-22T04:42:24;11.07;;;9.03;;
9374;SDS011;4727;51.202;6.344;2023-06-22T04:44:53;14.10;;;8.97;;
9374;SDS011;4727;51.202;6.344;2023-06-22T04:47:19;11.20;;;8.87;;
9374;SDS011;4727;51.202;6.344;2023-06-22T04:49:45;13.87;;;9.50;;
9374;SDS011;4727;51.202;6.344;2023-06-22T04:52:12;11.37;;;9.03;;
9374;SDS011;4727;51.202;6.344;2023-06-22T04:54:39;10.80;;;8.50;;
9374;SDS011;4727;51.202;6.344;2023-06-22T04:57:13;11.83;;;8.97;;
9374;SDS011;4727;51.202;6.344;2023-06-22T04:59:39;9.97;;;8.97;;
9374;SDS011;4727;51.202;6.344;2023-06-22T05:02:06;15.53;;;9.83;;
9374;SDS011;4727;51.202;6.344;2023-06-22T05:04:32;15.20;;;9.77;;
9374;SDS011;4727;51.202;6.344;2023-06-22T05:07:00;13.77;;;9.47;;
9374;SDS011;4727;51.202;6.344;2023-06-22T05:09:27;13.70;;;9.57;;
9374;SDS011;4727;51.202;6.344;2023-06-22T05:11:53;14.43;;;9.87;;
9374;SDS011;4727;51.202;6.344;2023-06-22T05:14:18;17.53;;;10.53;;
9374;SDS011;4727;51.202;6.344;2023-06-22T05:16:44;11.67;;;9.90;;
9374;SDS011;4727;51.202;6.344;2023-06-22T05:19:10;16.60;;;10.57;;
9374;SDS011;4727;51.202;6.344;2023-06-22T05:21:36;10.77;;;9.73;;
9374;SDS011;4727;51.202;6.344;2023-06-22T05:24:02;15.20;;;10.80;;
9374;SDS011;4727;51.202;6.344;2023-06-22T05:26:28;14.07;;;10.43;;
9374;SDS011;4727;51.202;6.344;2023-06-22T05:28:55;12.30;;;10.20;;
9374;SDS011;4727;51.202;6.344;2023-06-22T05:31:22;13.53;;;11.20;;
9374;SDS011;4727;51.202;6.344;2023-06-22T05:33:48;18.23;;;10.67;;
9374;SDS011;4727;51.202;6.344;2023-06-22T05:36:16;16.07;;;10.73;;
9374;SDS011;4727;51.202;6.344;2023-06-22T05:38:41;12.27;;;9.73;;
9374;SDS011;4727;51.202;6.344;2023-06-22T05:41:07;14.20;;;10.37;;
9374;SDS011;4727;51.202;6.344;2023-06-22T05:43:33;20.13;;;10.37;;
9374;SDS011;4727;51.202;6.344;2023-06-22T05:46:00;14.00;;;10.73;;
9374;SDS011;4727;51.202;6.344;2023-06-22T05:48:26;14.90;;;10.67;;
9374;SDS011;4727;51.202;6.344;2023-06-22T05:50:52;13.73;;;10.50;;
9374;SDS011;4727;51.202;6.344;2023-06-22T05:53:18;12.90;;;10.53;;
9374;SDS011;4727;51.202;6.344;2023-06-22T05:55:44;14.50;;;9.90;;
9374;SDS011;4727;51.202;6.344;2023-06-22T05:58:10;13.97;;;10.47;;
9374;SDS011;4727;51.202;6.344;2023-06-22T06:00:35;13.87;;;10.70;;
9374;SDS011;4727;51.202;6.344;2023-06-22T06:03:01;18.07;;;10.83;;
9374;SDS011;4727;51.202;6.344;2023-06-22T06:05:32;13.93;;;10.80;;
9374;SDS011;4727;51.202;6.344;2023-06-22T06:07:59;11.33;;;9.63;;
9374;SDS011;4727;51.202;6.344;2023-06-22T06:10:26;13.27;;;9.80;;
9374;SDS011;4727;51.202;6.344;2023-06-22T06:12:54;16.67;;;11.00;;
9374;SDS011;4727;51.202;6.344;2023-06-22T06:15:20;13.10;;;10.30;;
9374;SDS011;4727;51.202;6.344;2023-06-22T06:17:48;15.90;;;10.00;;
9374;SDS011;4727;51.202;6.344;2023-06-22T06:20:18;13.80;;;10.73;;
9374;SDS011;4727;51.202;6.344;2023-06-22T06:22:44;16.40;;;11.40;;
9374;SDS011;4727;51.202;6.344;2023-06-22T06:25:10;13.73;;;11.77;;
9374;SDS011;4727;51.202;6.344;2023-06-22T06:27:40;14.30;;;10.83;;
9374;SDS011;4727;51.202;6.344;2023-06-22T06:30:10;13.63;;;11.07;;
9374;SDS011;4727;51.202;6.344;2023-06-22T06:32:36;17.27;;;11.37;;
9374;SDS011;4727;51.202;6.344;2023-06-22T06:35:03;19.40;;;10.93;;
9374;SDS011;4727;51.202;6.344;2023-06-22T06:37:30;15.57;;;11.33;;
9374;SDS011;4727;51.202;6.344;2023-06-22T06:39:56;14.57;;;10.83;;
9374;SDS011;4727;51.202;6.344;2023-06-22T06:42:22;15.23;;;11.33;;
9374;SDS011;4727;51.202;6.344;2023-06-22T06:44:49;13.30;;;10.93;;
9374;SDS011;4727;51.202;6.344;2023-06-22T06:47:15;12.93;;;10.27;;
9374;SDS011;4727;51.202;6.344;2023-06-22T06:49:41;13.53;;;11.57;;
9374;SDS011;4727;51.202;6.344;2023-06-22T06:52:07;14.93;;;11.67;;
9374;SDS011;4727;51.202;6.344;2023-06-22T06:54:33;12.60;;;10.47;;
9374;SDS011;4727;51.202;6.344;2023-06-22T06:56:58;12.60;;;10.33;;
9374;SDS011;4727;51.202;6.344;2023-06-22T06:59:24;16.20;;;11.43;;
9374;SDS011;4727;51.202;6.344;2023-06-22T07:01:50;13.60;;;9.97;;
9374;SDS011;4727;51.202;6.344;2023-06-22T07:04:16;13.17;;;9.80;;
9374;SDS011;4727;51.202;6.344;2023-06-22T07:06:41;11.40;;;10.20;;
9374;SDS011;4727;51.202;6.344;2023-06-22T07:09:07;12.90;;;9.23;;
9374;SDS011;4727;51.202;6.344;2023-06-22T07:11:33;19.00;;;11.53;;
9374;SDS011;4727;51.202;6.344;2023-06-22T07:14:00;14.40;;;11.07;;
9374;SDS011;4727;51.202;6.344;2023-06-22T07:16:26;13.00;;;10.43;;
9374;SDS011;4727;51.202;6.344;2023-06-22T07:18:52;13.67;;;10.50;;
9374;SDS011;4727;51.202;6.344;2023-06-22T07:21:18;13.33;;;10.77;;
9374;SDS011;4727;51.202;6.344;2023-06-22T07:23:44;17.43;;;11.10;;
9374;SDS011;4727;51.202;6.344;2023-06-22T07:26:09;13.03;;;10.10;;
9374;SDS011;4727;51.202;6.344;2023-06-22T07:28:37;17.60;;;11.13;;
9374;SDS011;4727;51.202;6.344;2023-06-22T07:31:05;13.93;;;11.10;;
9374;SDS011;4727;51.202;6.344;2023-06-22T07:33:31;14.17;;;11.40;;
9374;SDS011;4727;51.202;6.344;2023-06-22T07:35:56;24.23;;;11.47;;
9374;SDS011;4727;51.202;6.344;2023-06-22T07:38:22;15.40;;;11.47;;
9374;SDS011;4727;51.202;6.344;2023-06-22T07:40:48;16.93;;;11.13;;
9374;SDS011;4727;51.202;6.344;2023-06-22T07:43:13;13.40;;;10.20;;
9374;SDS011;4727;51.202;6.344;2023-06-22T07:45:39;20.23;;;11.77;;
9374;SDS011;4727;51.202;6.344;2023-06-22T07:48:06;12.53;;;10.33;;
9374;SDS011;4727;51.202;6.344;2023-06-22T07:50:32;15.67;;;11.60;;
9374;SDS011;4727;51.202;6.344;2023-06-22T07:52:58;17.47;;;11.67;;
9374;SDS011;4727;51.202;6.344;2023-06-22T07:55:23;14.80;;;11.40;;
9374;SDS011;4727;51.202;6.344;2023-06-22T07:57:49;13.50;;;10.93;;
9374;SDS011;4727;51.202;6.344;2023-06-22T08:00:16;12.23;;;9.97;;
9374;SDS011;4727;51.202;6.344;2023-06-22T08:02:44;14.57;;;10.33;;
9374;SDS011;4727;51.202;6.344;2023-06-22T08:05:11;10.87;;;9.77;;
9374;SDS011;4727;51.202;6.344;2023-06-22T08:07:37;13.03;;;10.37;;
9374;SDS011;4727;51.202;6.344;2023-06-22T08:10:04;16.07;;;10.47;;
9374;SDS011;4727;51.202;6.344;2023-06-22T08:12:30;11.73;;;9.27;;
9374;SDS011;4727;51.202;6.344;2023-06-22T08:14:56;12.83;;;9.97;;
9374;SDS011;4727;51.202;6.344;2023-06-22T08:17:23;11.77;;;9.02;;
9374;SDS011;4727;51.202;6.344;2023-06-22T08:19:49;13.63;;;8.63;;
9374;SDS011;4727;51.202;6.344;2023-06-22T08:22:15;12.13;;;9.30;;
9374;SDS011;4727;51.202;6.344;2023-06-22T08:24:41;10.05;;;8.82;;
9374;SDS011;4727;51.202;6.344;2023-06-22T08:27:07;12.77;;;8.20;;
9374;SDS011;4727;51.202;6.344;2023-06-22T08:29:34;11.52;;;9.35;;
9374;SDS011;4727;51.202;6.344;2023-06-22T08:32:00;12.15;;;8.63;;
9374;SDS011;4727;51.202;6.344;2023-06-22T08:34:26;10.05;;;8.68;;
9374;SDS011;4727;51.202;6.344;2023-06-22T08:36:52;9.38;;;8.48;;
9374;SDS011;4727;51.202;6.344;2023-06-22T08:39:21;10.80;;;9.07;;
9374;SDS011;4727;51.202;6.344;2023-06-22T08:41:47;11.90;;;9.02;;
9374;SDS011;4727;51.202;6.344;2023-06-22T08:44:13;9.82;;;8.88;;
9374;SDS011;4727;51.202;6.344;2023-06-22T08:46:40;10.02;;;9.02;;
9374;SDS011;4727;51.202;6.344;2023-06-22T08:49:06;9.70;;;8.07;;
9374;SDS011;4727;51.202;6.344;2023-06-22T08:51:33;10.55;;;8.32;;
9374;SDS011;4727;51.202;6.344;2023-06-22T08:53:58;10.68;;;8.65;;
9374;SDS011;4727;51.202;6.344;2023-06-22T08:56:24;11.52;;;8.82;;
9374;SDS011;4727;51.202;6.344;2023-06-22T08:58:49;11.13;;;9.23;;
9374;SDS011;4727;51.202;6.344;2023-06-22T09:01:15;10.70;;;9.20;;
9374;SDS011;4727;51.202;6.344;2023-06-22T09:03:41;10.30;;;8.07;;
9374;SDS011;4727;51.202;6.344;2023-06-22T09:06:06;10.80;;;8.55;;
9374;SDS011;4727;51.202;6.344;2023-06-22T09:08:34;9.18;;;8.32;;
9374;SDS011;4727;51.202;6.344;2023-06-22T09:11:00;10.15;;;8.25;;
9374;SDS011;4727;51.202;6.344;2023-06-22T09:13:26;7.88;;;7.05;;
9374;SDS011;4727;51.202;6.344;2023-06-22T09:15:52;8.50;;;7.70;;
9374;SDS011;4727;51.202;6.344;2023-06-22T09:18:18;9.80;;;8.07;;
9374;SDS011;4727;51.202;6.344;2023-06-22T09:20:44;9.95;;;8.68;;
9374;SDS011;4727;51.202;6.344;2023-06-22T09:23:10;11.23;;;7.75;;
9374;SDS011;4727;51.202;6.344;2023-06-22T09:25:36;8.82;;;7.93;;
9374;SDS011;4727;51.202;6.344;2023-06-22T09:28:01;12.93;;;8.10;;
9374;SDS011;4727;51.202;6.344;2023-06-22T09:30:27;8.00;;;7.20;;
9374;SDS011;4727;51.202;6.344;2023-06-22T09:32:52;8.65;;;7.45;;
9374;SDS011;4727;51.202;6.344;2023-06-22T09:35:20;9.20;;;7.82;;
9374;SDS011;4727;51.202;6.344;2023-06-22T09:37:46;7.85;;;6.90;;
9374;SDS011;4727;51.202;6.344;2023-06-22T09:40:11;8.25;;;7.50;;
9374;SDS011;4727;51.202;6.344;2023-06-22T09:42:38;13.27;;;7.85;;
9374;SDS011;4727;51.202;6.344;2023-06-22T09:45:04;11.00;;;8.50;;
9374;SDS011;4727;51.202;6.344;2023-06-22T09:47:30;12.60;;;7.15;;
9374;SDS011;4727;51.202;6.344;2023-06-22T09:49:56;8.95;;;7.28;;
9374;SDS011;4727;51.202;6.344;2023-06-22T09:52:24;8.43;;;7.18;;
9374;SDS011;4727;51.202;6.344;2023-06-22T09:54:49;9.05;;;7.85;;
9374;SDS011;4727;51.202;6.344;2023-06-22T09:57:15;8.60;;;7.78;;
9374;SDS011;4727;51.202;6.344;2023-06-22T09:59:40;7.50;;;6.80;;
9374;SDS011;4727;51.202;6.344;2023-06-22T10:02:06;9.63;;;7.65;;
9374;SDS011;4727;51.202;6.344;2023-06-22T10:04:33;11.30;;;8.43;;
9374;SDS011;4727;51.202;6.344;2023-06-22T10:06:59;10.85;;;8.30;;
9374;SDS011;4727;51.202;6.344;2023-06-22T10:09:25;9.85;;;7.68;;
9374;SDS011;4727;51.202;6.344;2023-06-22T10:11:50;10.18;;;8.00;;
9374;SDS011;4727;51.202;6.344;2023-06-22T10:14:16;10.40;;;8.68;;
9374;SDS011;4727;51.202;6.344;2023-06-22T10:16:41;11.70;;;8.52;;
9374;SDS011;4727;51.202;6.344;2023-06-22T10:19:07;11.85;;;10.27;;
9374;SDS011;4727;51.202;6.344;2023-06-22T10:21:33;9.60;;;8.40;;
9374;SDS011;4727;51.202;6.344;2023-06-22T10:23:59;13.00;;;10.10;;
9374;SDS011;4727;51.202;6.344;2023-06-22T10:26:31;12.05;;;10.00;;
9374;SDS011;4727;51.202;6.344;2023-06-22T10:28:57;11.90;;;9.52;;
9374;SDS011;4727;51.202;6.344;2023-06-22T10:31:23;11.77;;;10.20;;
9374;SDS011;4727;51.202;6.344;2023-06-22T10:33:48;15.10;;;10.05;;
9374;SDS011;4727;51.202;6.344;2023-06-22T10:36:14;12.73;;;10.50;;
9374;SDS011;4727;51.202;6.344;2023-06-22T10:38:40;13.27;;;10.63;;
9374;SDS011;4727;51.202;6.344;2023-06-22T10:41:06;13.27;;;10.93;;
9374;SDS011;4727;51.202;6.344;2023-06-22T10:43:31;13.10;;;11.60;;
9374;SDS011;4727;51.202;6.344;2023-06-22T10:45:57;13.32;;;11.05;;
9374;SDS011;4727;51.202;6.344;2023-06-22T10:48:23;15.98;;;12.32;;
9374;SDS011;4727;51.202;6.344;2023-06-22T10:50:48;15.43;;;12.63;;
9374;SDS011;4727;51.202;6.344;2023-06-22T10:53:14;13.43;;;11.52;;
9374;SDS011;4727;51.202;6.344;2023-06-22T10:55:39;19.98;;;13.40;;
9374;SDS011;4727;51.202;6.344;2023-06-22T10:58:05;19.75;;;14.10;;
9374;SDS011;4727;51.202;6.344;2023-06-22T11:00:31;19.73;;;13.48;;
9374;SDS011;4727;51.202;6.344;2023-06-22T11:02:56;19.02;;;13.77;;
9374;SDS011;4727;51.202;6.344;2023-06-22T11:05:23;19.95;;;14.25;;
9374;SDS011;4727;51.202;6.344;2023-06-22T11:07:48;19.35;;;14.15;;
9374;SDS011;4727;51.202;6.344;2023-06-22T11:10:15;19.00;;;14.52;;
9374;SDS011;4727;51.202;6.344;2023-06-22T11:12:41;16.77;;;13.13;;
9374;SDS011;4727;51.202;6.344;2023-06-22T11:15:07;19.88;;;14.07;;
9374;SDS011;4727;51.202;6.344;2023-06-22T11:17:34;20.97;;;14.50;;
9374;SDS011;4727;51.202;6.344;2023-06-22T11:19:59;16.40;;;13.65;;
9374;SDS011;4727;51.202;6.344;2023-06-22T11:22:25;19.00;;;15.25;;
9374;SDS011;4727;51.202;6.344;2023-06-22T11:24:51;20.10;;;14.85;;
9374;SDS011;4727;51.202;6.344;2023-06-22T11:27:17;19.30;;;15.35;;
9374;SDS011;4727;51.202;6.344;2023-06-22T11:29:42;22.23;;;16.00;;
9374;SDS011;4727;51.202;6.344;2023-06-22T11:32:08;19.88;;;15.38;;
9374;SDS011;4727;51.202;6.344;2023-06-22T11:34:34;22.25;;;15.95;;
9374;SDS011;4727;51.202;6.344;2023-06-22T11:36:59;20.87;;;14.70;;
9374;SDS011;4727;51.202;6.344;2023-06-22T11:39:25;20.73;;;16.07;;
9374;SDS011;4727;51.202;6.344;2023-06-22T11:41:51;18.20;;;14.45;;
9374;SDS011;4727;51.202;6.344;2023-06-22T11:44:16;19.02;;;14.88;;
9374;SDS011;4727;51.202;6.344;2023-06-22T11:46:42;26.38;;;15.52;;
9374;SDS011;4727;51.202;6.344;2023-06-22T11:49:08;22.23;;;14.77;;
9374;SDS011;4727;51.202;6.344;2023-06-22T11:51:33;22.47;;;15.77;;
9374;SDS011;4727;51.202;6.344;2023-06-22T11:53:59;20.88;;;15.27;;
9374;SDS011;4727;51.202;6.344;2023-06-22T11:56:24;20.23;;;15.90;;
9374;SDS011;4727;51.202;6.344;2023-06-22T11:58:50;21.90;;;14.93;;
9374;SDS011;4727;51.202;6.344;2023-06-22T12:01:15;22.75;;;15.68;;
9374;SDS011;4727;51.202;6.344;2023-06-22T12:03:41;21.75;;;15.52;;
9374;SDS011;4727;51.202;6.344;2023-06-22T12:06:08;20.73;;;15.20;;
9374;SDS011;4727;51.202;6.344;2023-06-22T12:08:34;22.70;;;15.33;;
9374;SDS011;4727;51.202;6.344;2023-06-22T12:11:00;18.17;;;15.02;;
9374;SDS011;4727;51.202;6.344;2023-06-22T12:13:25;20.05;;;16.10;;
9374;SDS011;4727;51.202;6.344;2023-06-22T12:15:51;21.02;;;14.48;;
9374;SDS011;4727;51.202;6.344;2023-06-22T12:18:17;19.45;;;14.68;;
9374;SDS011;4727;51.202;6.344;2023-06-22T12:20:45;19.65;;;15.02;;
9374;SDS011;4727;51.202;6.344;2023-06-22T12:23:11;19.65;;;14.93;;
9374;SDS011;4727;51.202;6.344;2023-06-22T12:25:37;20.52;;;15.30;;
9374;SDS011;4727;51.202;6.344;2023-06-22T12:28:02;22.05;;;15.90;;
9374;SDS011;4727;51.202;6.344;2023-06-22T12:30:29;20.67;;;14.60;;
9374;SDS011;4727;51.202;6.344;2023-06-22T12:32:55;21.23;;;15.60;;
9374;SDS011;4727;51.202;6.344;2023-06-22T12:35:20;15.93;;;13.23;;
9374;SDS011;4727;51.202;6.344;2023-06-22T12:37:46;20.23;;;14.63;;
9374;SDS011;4727;51.202;6.344;2023-06-22T12:40:12;19.50;;;15.10;;
9374;SDS011;4727;51.202;6.344;2023-06-22T12:42:37;19.95;;;13.98;;
9374;SDS011;4727;51.202;6.344;2023-06-22T12:45:03;22.05;;;15.57;;
9374;SDS011;4727;51.202;6.344;2023-06-22T12:47:29;21.73;;;14.77;;
9374;SDS011;4727;51.202;6.344;2023-06-22T12:49:55;17.58;;;13.70;;
9374;SDS011;4727;51.202;6.344;2023-06-22T12:52:21;18.35;;;12.70;;
9374;SDS011;4727;51.202;6.344;2023-06-22T12:54:46;15.45;;;13.10;;
9374;SDS011;4727;51.202;6.344;2023-06-22T12:57:13;18.15;;;14.35;;
9374;SDS011;4727;51.202;6.344;2023-06-22T12:59:38;18.67;;;14.05;;
9374;SDS011;4727;51.202;6.344;2023-06-22T13:02:04;16.73;;;13.53;;
9374;SDS011;4727;51.202;6.344;2023-06-22T13:04:30;19.95;;;14.40;;
9374;SDS011;4727;51.202;6.344;2023-06-22T13:06:56;16.58;;;14.35;;
9374;SDS011;4727;51.202;6.344;2023-06-22T13:09:21;19.90;;;13.70;;
9374;SDS011;4727;51.202;6.344;2023-06-22T13:11:47;20.38;;;14.25;;
9374;SDS011;4727;51.202;6.344;2023-06-22T13:14:13;20.55;;;15.35;;
9374;SDS011;4727;51.202;6.344;2023-06-22T13:16:39;21.27;;;16.00;;
9374;SDS011;4727;51.202;6.344;2023-06-22T13:19:04;21.88;;;15.90;;
9374;SDS011;4727;51.202;6.344;2023-06-22T13:21:30;21.98;;;15.48;;
9374;SDS011;4727;51.202;6.344;2023-06-22T13:23:56;19.48;;;16.05;;
9374;SDS011;4727;51.202;6.344;2023-06-22T13:26:21;22.43;;;16.23;;
9374;SDS011;4727;51.202;6.344;2023-06-22T13:28:47;20.35;;;15.35;;
9374;SDS011;4727;51.202;6.344;2023-06-22T13:31:13;19.17;;;16.42;;
9374;SDS011;4727;51.202;6.344;2023-06-22T13:33:38;21.88;;;16.20;;
9374;SDS011;4727;51.202;6.344;2023-06-22T13:36:05;19.63;;;15.73;;
9374;SDS011;4727;51.202;6.344;2023-06-22T13:38:32;18.85;;;15.60;;
9374;SDS011;4727;51.202;6.344;2023-06-22T13:40:59;21.92;;;16.98;;
9374;SDS011;4727;51.202;6.344;2023-06-22T13:43:26;21.17;;;17.02;;
9374;SDS011;4727;51.202;6.344;2023-06-22T13:45:52;17.17;;;14.48;;
9374;SDS011;4727;51.202;6.344;2023-06-22T13:48:18;23.30;;;16.00;;
9374;SDS011;4727;51.202;6.344;2023-06-22T13:50:43;22.27;;;17.00;;
9374;SDS011;4727;51.202;6.344;2023-06-22T13:53:09;19.30;;;15.50;;
9374;SDS011;4727;51.202;6.344;2023-06-22T13:55:35;19.90;;;15.35;;
9374;SDS011;4727;51.202;6.344;2023-06-22T13:58:00;23.65;;;17.60;;
9374;SDS011;4727;51.202;6.344;2023-06-22T14:00:26;26.58;;;17.83;;
9374;SDS011;4727;51.202;6.344;2023-06-22T14:02:52;19.85;;;15.70;;
9374;SDS011;4727;51.202;6.344;2023-06-22T14:05:19;22.17;;;17.13;;
9374;SDS011;4727;51.202;6.344;2023-06-22T14:07:44;21.90;;;17.20;;
9374;SDS011;4727;51.202;6.344;2023-06-22T14:10:10;22.17;;;16.40;;
9374;SDS011;4727;51.202;6.344;2023-06-22T14:12:36;23.07;;;17.60;;
9374;SDS011;4727;51.202;6.344;2023-06-22T14:15:01;22.30;;;16.50;;
9374;SDS011;4727;51.202;6.344;2023-06-22T14:17:27;21.00;;;15.97;;
9374;SDS011;4727;51.202;6.344;2023-06-22T14:19:53;25.67;;;18.83;;
9374;SDS011;4727;51.202;6.344;2023-06-22T14:22:19;20.63;;;15.60;;
9374;SDS011;4727;51.202;6.344;2023-06-22T14:24:45;21.20;;;16.83;;
9374;SDS011;4727;51.202;6.344;2023-06-22T14:27:12;22.70;;;16.40;;
9374;SDS011;4727;51.202;6.344;2023-06-22T14:29:37;18.90;;;15.73;;
9374;SDS011;4727;51.202;6.344;2023-06-22T14:32:03;20.13;;;15.60;;
9374;SDS011;4727;51.202;6.344;2023-06-22T14:34:31;25.23;;;17.67;;
9374;SDS011;4727;51.202;6.344;2023-06-22T14:36:57;24.23;;;16.73;;
9374;SDS011;4727;51.202;6.344;2023-06-22T14:39:22;19.57;;;14.40;;
9374;SDS011;4727;51.202;6.344;2023-06-22T14:41:48;21.80;;;15.32;;
9374;SDS011;4727;51.202;6.344;2023-06-22T14:44:13;18.43;;;15.07;;
9374;SDS011;4727;51.202;6.344;2023-06-22T14:46:40;19.53;;;15.27;;
9374;SDS011;4727;51.202;6.344;2023-06-22T14:49:05;21.90;;;15.97;;
9374;SDS011;4727;51.202;6.344;2023-06-22T14:51:31;14.67;;;12.83;;
9374;SDS011;4727;51.202;6.344;2023-06-22T14:53:56;20.00;;;14.93;;
9374;SDS011;4727;51.202;6.344;2023-06-22T14:56:22;20.30;;;14.73;;
9374;SDS011;4727;51.202;6.344;2023-06-22T14:58:48;19.23;;;14.97;;
9374;SDS011;4727;51.202;6.344;2023-06-22T15:01:16;26.70;;;16.50;;